Time;durP1;ratioP1;P1;durP2;ratioP2;P2;SDS_P1;SDS_P2;PMS_P1;PMS_P2;Temp;Humidity;BMP_temperature;BMP_pressure;BME280_temperature;BME280_humidity;BME280_pressure;Samples;Min_cycle;Max_cycle;Signal;HPM_P1;HPM_P2
2023/10/08 00:10:42;;;;;;;19.52;15.23;;;22.20;76.30;;;;;;6214036;23;20025;-76
2023/10/08 00:13:12;;;;;;;20.52;16.70;;;22.20;75.40;;;;;;6244257;23;20019;-75
2023/10/08 00:15:52;;;;;;;20.80;17.42;;;22.10;75.40;;;;;;6244005;23;20008;-77
2023/10/08 00:18:19;;;;;;;24.70;16.40;;;22.10;75.40;;;;;;6242515;23;20008;-77
2023/10/08 00:20:54;;;;;;;22.02;16.05;;;22.00;75.80;;;;;;6243827;23;20064;-77
2023/10/08 00:23:26;;;;;;;19.85;15.80;;;22.00;76.20;;;;;;6244170;23;20178;-75
2023/10/08 00:25:54;;;;;;;20.08;15.43;;;22.00;75.90;;;;;;6244263;23;20007;-77
2023/10/08 00:28:24;;;;;;;21.77;16.42;;;22.00;75.70;;;;;;6244134;23;20000;-77
2023/10/08 00:30:50;;;;;;;21.15;15.70;;;22.00;75.80;;;;;;6244248;23;20066;-77
2023/10/08 00:33:16;;;;;;;17.95;15.05;;;22.00;75.70;;;;;;6244247;23;20012;-77
2023/10/08 00:35:42;;;;;;;21.17;16.45;;;21.90;75.80;;;;;;6244258;23;20043;-76
2023/10/08 00:38:15;;;;;;;21.63;15.10;;;21.90;75.80;;;;;;6243720;23;20315;-75
2023/10/08 00:40:45;;;;;;;23.77;15.82;;;21.80;75.80;;;;;;6245000;23;20338;-76
2023/10/08 00:43:35;;;;;;;21.75;15.93;;;21.80;76.50;;;;;;6244175;23;20075;-76
2023/10/08 00:46:04;;;;;;;24.77;17.02;;;21.80;76.70;;;;;;6244037;23;20086;-74
2023/10/08 00:48:35;;;;;;;23.88;17.35;;;21.80;75.90;;;;;;6244183;23;20011;-76
2023/10/08 00:53:58;;;;;;;23.65;17.38;;;21.70;76.10;;;;;;6244350;23;20008;-77
2023/10/08 00:56:46;;;;;;;26.38;19.30;;;21.70;76.30;;;;;;6243939;23;20445;-77
2023/10/08 00:59:15;;;;;;;23.50;17.65;;;21.70;76.20;;;;;;6244059;23;20011;-76
2023/10/08 01:01:50;;;;;;;27.65;18.90;;;21.70;76.40;;;;;;6243777;23;20053;-77
2023/10/08 01:04:18;;;;;;;22.27;18.52;;;21.60;76.20;;;;;;6243870;23;20004;-77
2023/10/08 01:06:47;;;;;;;24.15;19.02;;;21.60;76.60;;;;;;6243696;23;20007;-75
2023/10/08 01:09:21;;;;;;;22.30;18.90;;;21.60;76.90;;;;;;6243680;23;20095;-76
2023/10/08 01:12:07;;;;;;;27.45;19.20;;;21.60;77.50;;;;;;6243698;23;20325;-75
2023/10/08 01:14:33;;;;;;;23.45;18.02;;;21.60;76.80;;;;;;6243490;23;20473;-77
2023/10/08 01:16:59;;;;;;;24.20;19.35;;;21.50;77.30;;;;;;6244000;23;20023;-77
2023/10/08 01:19:26;;;;;;;25.27;18.15;;;21.50;77.40;;;;;;6244064;23;20063;-76
2023/10/08 01:21:52;;;;;;;26.02;18.10;;;21.50;77.60;;;;;;6244171;23;20009;-75
2023/10/08 01:24:19;;;;;;;30.15;18.65;;;21.50;77.70;;;;;;6243797;23;20007;-75
2023/10/08 01:26:45;;;;;;;24.58;17.63;;;21.40;77.70;;;;;;6243939;23;20334;-77
2023/10/08 01:29:21;;;;;;;30.17;17.63;;;21.40;78.20;;;;;;6245586;23;20000;-77
2023/10/08 01:31:53;;;;;;;21.73;17.20;;;21.30;78.00;;;;;;6245786;23;20042;-77
2023/10/08 01:34:26;;;;;;;20.58;16.83;;;21.30;78.20;;;;;;6246048;23;20059;-77
2023/10/08 01:36:52;;;;;;;22.20;16.85;;;21.30;78.30;;;;;;6246162;23;20020;-76
2023/10/08 01:39:17;;;;;;;28.67;17.52;;;21.30;78.10;;;;;;6245510;23;20085;-77
2023/10/08 01:41:51;;;;;;;22.85;17.13;;;21.30;78.10;;;;;;6245800;23;20283;-77
2023/10/08 01:44:16;;;;;;;20.15;16.52;;;21.20;78.10;;;;;;6245508;23;20004;-76
2023/10/08 01:46:43;;;;;;;24.08;17.63;;;21.30;78.40;;;;;;6245582;23;20011;-76
2023/10/08 01:49:22;;;;;;;25.50;17.25;;;21.20;78.10;;;;;;6245481;23;19997;-76
2023/10/08 01:51:47;;;;;;;29.10;17.10;;;21.10;78.40;;;;;;6245742;23;20000;-76
2023/10/08 01:54:14;;;;;;;23.63;18.63;;;21.10;78.60;;;;;;6245870;23;20007;-77
2023/10/08 01:56:41;;;;;;;24.08;18.42;;;21.20;78.70;;;;;;6245669;23;20012;-77
2023/10/08 01:59:16;;;;;;;29.33;18.48;;;21.20;78.60;;;;;;6245662;23;20500;-77
2023/10/08 02:01:43;;;;;;;21.90;17.48;;;21.20;78.60;;;;;;6246005;23;20283;-76
2023/10/08 02:04:12;;;;;;;26.98;19.10;;;21.10;78.50;;;;;;6246335;23;20000;-78
2023/10/08 02:06:41;;;;;;;25.30;18.52;;;21.10;78.80;;;;;;6246839;23;20330;-76
2023/10/08 02:09:10;;;;;;;24.65;16.73;;;21.00;78.50;;;;;;6245201;23;20102;-76
2023/10/08 02:11:53;;;;;;;23.02;16.67;;;21.00;78.60;;;;;;6245556;23;20082;-76
2023/10/08 02:14:20;;;;;;;22.47;16.60;;;21.10;78.30;;;;;;6245577;23;20007;-76
2023/10/08 02:16:47;;;;;;;21.52;16.10;;;21.10;78.10;;;;;;6245699;23;20012;-76
2023/10/08 02:19:13;;;;;;;21.05;16.05;;;21.10;78.00;;;;;;6245506;23;20000;-76
2023/10/08 02:21:40;;;;;;;21.38;15.63;;;21.10;77.80;;;;;;6245543;23;20007;-75
2023/10/08 02:24:08;;;;;;;21.88;15.77;;;21.00;77.70;;;;;;6245621;23;20493;-76
2023/10/08 02:26:34;;;;;;;21.10;16.42;;;21.00;77.70;;;;;;6245659;23;20015;-76
2023/10/08 02:29:01;;;;;;;19.48;14.93;;;21.00;77.80;;;;;;6245284;23;19996;-76
2023/10/08 02:31:27;;;;;;;17.23;15.35;;;21.00;77.90;;;;;;6245139;23;20007;-77
2023/10/08 02:33:53;;;;;;;20.52;15.63;;;20.90;77.80;;;;;;6246122;23;20004;-74
2023/10/08 02:36:19;;;;;;;20.83;15.23;;;20.90;77.60;;;;;;6246103;23;20099;-76
2023/10/08 02:38:45;;;;;;;20.88;16.02;;;21.00;77.60;;;;;;6244788;23;20028;-77
2023/10/08 02:41:16;;;;;;;17.00;14.98;;;21.00;77.30;;;;;;6245856;23;20004;-75
2023/10/08 02:43:44;;;;;;;20.92;15.52;;;21.00;77.30;;;;;;6246520;23;20023;-76
2023/10/08 02:46:14;;;;;;;18.63;16.20;;;20.90;77.20;;;;;;6246007;23;20015;-76
2023/10/08 02:48:41;;;;;;;26.05;15.45;;;20.80;77.60;;;;;;6245791;23;20027;-76
2023/10/08 02:51:13;;;;;;;22.95;16.58;;;20.80;77.30;;;;;;6245540;23;20088;-76
2023/10/08 02:53:42;;;;;;;23.08;16.15;;;20.80;77.60;;;;;;6245142;23;19996;-76
2023/10/08 02:56:12;;;;;;;19.60;15.25;;;20.80;77.50;;;;;;6244636;23;20016;-77
2023/10/08 02:58:39;;;;;;;21.08;14.65;;;20.80;77.60;;;;;;6244523;23;20057;-76
2023/10/08 03:01:07;;;;;;;19.38;15.02;;;20.80;77.70;;;;;;6244757;23;20011;-77
2023/10/08 03:03:32;;;;;;;19.80;15.23;;;20.80;77.60;;;;;;6244966;23;20004;-76
2023/10/08 03:05:58;;;;;;;20.48;16.20;;;20.70;77.30;;;;;;6245083;23;20401;-74
2023/10/08 03:08:24;;;;;;;21.08;15.00;;;20.70;77.40;;;;;;6244737;23;20405;-76
2023/10/08 03:11:02;;;;;;;21.98;15.70;;;20.70;77.60;;;;;;6245383;23;20026;-77
2023/10/08 03:13:28;;;;;;;19.60;15.68;;;20.70;77.40;;;;;;6244943;23;20008;-76
2023/10/08 03:18:36;;;;;;;18.17;14.70;;;20.60;77.80;;;;;;6247898;23;20349;-76
2023/10/08 03:21:19;;;;;;;19.73;15.23;;;20.60;77.60;;;;;;6246966;23;20000;-77
2023/10/08 03:23:47;;;;;;;19.17;14.65;;;20.50;78.10;;;;;;6218490;23;20283;-76
2023/10/08 03:28:58;;;;;;;21.20;15.60;;;20.60;77.70;;;;;;6247022;23;20008;-77
2023/10/08 03:31:44;;;;;;;21.75;16.05;;;20.50;77.50;;;;;;6244641;23;20304;-76
2023/10/08 03:34:14;;;;;;;22.35;16.77;;;20.40;77.60;;;;;;6244543;23;20008;-77
2023/10/08 03:36:44;;;;;;;22.15;16.95;;;20.40;77.70;;;;;;6245162;23;20024;-77
2023/10/08 03:39:19;;;;;;;23.48;17.17;;;20.40;78.10;;;;;;6244528;23;20004;-76
2023/10/08 03:42:07;;;;;;;18.95;16.45;;;20.40;78.10;;;;;;6244359;23;19996;-77
2023/10/08 03:44:31;;;;;;;21.52;17.30;;;20.50;78.20;;;;;;6244053;23;20113;-78
2023/10/08 03:46:57;;;;;;;22.75;17.33;;;20.50;78.00;;;;;;6244849;23;20004;-76
2023/10/08 03:51:52;;;;;;;23.48;16.25;;;20.50;78.00;;;;;;6244437;23;20010;-77
2023/10/08 03:54:19;;;;;;;20.85;16.95;;;20.50;78.10;;;;;;6244692;23;20019;-77
2023/10/08 03:56:48;;;;;;;25.20;16.90;;;20.50;77.90;;;;;;6246751;23;20031;-76
2023/10/08 03:59:14;;;;;;;21.77;17.17;;;20.50;77.80;;;;;;6244671;23;20004;-77
2023/10/08 04:01:43;;;;;;;21.38;16.65;;;20.50;77.90;;;;;;6244057;23;20013;-76
2023/10/08 04:04:14;;;;;;;27.75;17.75;;;20.50;78.20;;;;;;6243979;23;20370;-77
2023/10/08 04:06:48;;;;;;;23.42;17.25;;;20.50;78.00;;;;;;6244167;23;20282;-77
2023/10/08 04:09:23;;;;;;;25.27;17.15;;;20.40;78.10;;;;;;6244258;23;20016;-77
2023/10/08 04:14:20;;;;;;;20.83;15.70;;;20.30;78.00;;;;;;6243653;23;20000;-77
2023/10/08 04:16:46;;;;;;;20.13;14.90;;;20.30;78.00;;;;;;6243565;23;20016;-77
2023/10/08 04:19:12;;;;;;;20.77;16.05;;;20.30;78.00;;;;;;6243919;23;20423;-76
2023/10/08 04:21:42;;;;;;;22.30;15.90;;;20.30;77.90;;;;;;6244405;23;20075;-76
2023/10/08 04:24:08;;;;;;;19.50;15.38;;;20.30;77.50;;;;;;6244400;23;20071;-77
2023/10/08 04:26:35;;;;;;;22.42;16.75;;;20.20;77.70;;;;;;6243986;23;20387;-76
2023/10/08 04:29:02;;;;;;;21.13;15.10;;;20.20;78.10;;;;;;6244333;23;20000;-76
2023/10/08 04:31:46;;;;;;;19.02;15.45;;;20.20;78.10;;;;;;6243955;23;20004;-76
2023/10/08 04:34:22;;;;;;;21.05;15.98;;;20.10;78.00;;;;;;6244276;23;20419;-77
2023/10/08 04:36:55;;;;;;;20.45;16.45;;;20.10;78.10;;;;;;6243870;23;20039;-77
2023/10/08 04:39:58;;;;;;;19.85;14.80;;;20.10;78.30;;;;;;6243669;23;20048;-77
2023/10/08 04:42:14;;;;;;;20.08;14.48;;;20.10;78.40;;;;;;6240414;23;20041;-77
2023/10/08 04:44:42;;;;;;;22.05;15.55;;;20.10;78.30;;;;;;6243499;23;19996;-77
2023/10/08 04:47:09;;;;;;;20.48;15.30;;;20.10;78.50;;;;;;6243889;23;20079;-75
2023/10/08 04:49:39;;;;;;;19.23;14.82;;;20.10;78.10;;;;;;6243978;23;20050;-77
2023/10/08 04:52:13;;;;;;;20.35;15.25;;;20.10;78.20;;;;;;6244627;23;20103;-76
2023/10/08 04:54:41;;;;;;;20.23;14.90;;;20.10;77.70;;;;;;6244097;23;20307;-77
2023/10/08 04:57:15;;;;;;;18.70;14.38;;;20.00;77.90;;;;;;6244050;23;20434;-77
2023/10/08 04:59:42;;;;;;;19.35;15.07;;;20.00;78.20;;;;;;6243468;23;20008;-76
2023/10/08 05:02:20;;;;;;;19.77;14.50;;;19.90;78.00;;;;;;6243316;23;20373;-78
2023/10/08 05:10:11;;;;;;;17.05;13.98;;;20.00;78.20;;;;;;6244777;23;20026;-76
2023/10/08 05:12:37;;;;;;;22.40;15.40;;;20.00;77.80;;;;;;6216567;23;20034;-77
2023/10/08 05:26:08;;;;;;;16.45;13.48;;;19.90;77.80;;;;;;6243889;23;20038;-77
2023/10/08 05:34:16;;;;;;;20.15;14.45;;;20.00;77.10;;;;;;6243976;23;20374;-78
2023/10/08 05:39:40;;;;;;;20.27;15.10;;;19.90;76.60;;;;;;6243804;23;20020;-77
2023/10/08 05:44:46;;;;;;;25.02;16.05;;;19.90;76.90;;;;;;6244159;23;20054;-76
2023/10/08 05:51:13;;;;;;;21.50;16.48;;;19.90;77.10;;;;;;6243970;23;20008;-75
2023/10/08 05:55:26;;;;;;;23.17;16.00;;;20.00;76.60;;;;;;6244398;23;20013;-78
2023/10/08 06:03:32;;;;;;;23.75;17.90;;;20.10;76.10;;;;;;6244964;23;20088;-77
2023/10/08 06:11:44;;;;;;;26.63;19.25;;;20.20;76.20;;;;;;6243990;23;20146;-77
2023/10/08 06:14:13;;;;;;;26.52;19.40;;;20.40;75.80;;;;;;6245510;23;20000;-77
2023/10/08 06:16:44;;;;;;;26.92;19.48;;;20.50;75.10;;;;;;6245476;23;20058;-78
2023/10/08 06:19:14;;;;;;;25.83;18.73;;;20.70;74.80;;;;;;6245471;23;20023;-79
2023/10/08 06:21:41;;;;;;;26.75;19.50;;;20.80;74.20;;;;;;6245430;23;20005;-78
2023/10/08 06:24:16;;;;;;;26.42;18.80;;;21.00;73.70;;;;;;6245772;23;20008;-77
2023/10/08 06:26:42;;;;;;;23.85;17.20;;;21.10;73.10;;;;;;6245593;23;20007;-76
2023/10/08 06:29:27;;;;;;;24.02;16.55;;;21.20;72.70;;;;;;6219014;23;19996;-77
2023/10/08 06:32:01;;;;;;;21.50;15.35;;;21.40;72.10;;;;;;6245299;23;20007;-77
2023/10/08 06:34:28;;;;;;;20.85;14.20;;;21.60;71.70;;;;;;6246458;23;19996;-77
2023/10/08 06:36:55;;;;;;;21.52;15.00;;;21.80;71.30;;;;;;6245883;23;20012;-78
2023/10/08 06:39:25;;;;;;;18.88;14.40;;;21.90;70.80;;;;;;6245997;23;20394;-78
2023/10/08 06:41:56;;;;;;;20.17;13.77;;;22.10;70.30;;;;;;6247795;23;20055;-77
2023/10/08 06:44:22;;;;;;;17.85;13.60;;;22.20;69.70;;;;;;6248648;23;20004;-76
2023/10/08 06:46:48;;;;;;;14.48;11.90;;;22.40;69.60;;;;;;6251070;23;20052;-77
2023/10/08 06:49:15;;;;;;;18.35;12.77;;;22.50;68.90;;;;;;6245754;23;20000;-75
2023/10/08 06:51:43;;;;;;;19.65;13.23;;;22.60;68.80;;;;;;6245235;23;20000;-77
2023/10/08 06:54:13;;;;;;;15.88;12.18;;;22.70;68.50;;;;;;6218227;23;20084;-77
2023/10/08 06:56:46;;;;;;;18.08;12.35;;;22.90;68.10;;;;;;6244944;23;20019;-76
2023/10/08 06:59:18;;;;;;;17.13;11.47;;;23.00;67.90;;;;;;6245195;23;20508;-75
2023/10/08 07:01:46;;;;;;;16.17;11.80;;;23.20;67.70;;;;;;6245114;23;20004;-84
2023/10/08 07:04:13;;;;;;;15.35;11.40;;;23.20;67.20;;;;;;6245321;23;20007;-74
2023/10/08 07:06:40;;;;;;;17.38;12.15;;;23.20;67.10;;;;;;6247029;23;20398;-74
2023/10/08 07:09:13;;;;;;;17.30;11.88;;;23.30;66.60;;;;;;6247041;23;20429;-82
2023/10/08 07:11:44;;;;;;;15.15;11.77;;;23.30;66.70;;;;;;6245414;23;20413;-75
2023/10/08 07:14:10;;;;;;;17.38;12.02;;;23.40;66.30;;;;;;6246119;23;20000;-82
2023/10/08 07:16:36;;;;;;;15.07;10.82;;;23.40;66.10;;;;;;6249566;23;20008;-89
2023/10/08 07:19:04;;;;;;;15.70;11.35;;;23.50;66.10;;;;;;6248745;23;20003;-88
2023/10/08 07:21:44;;;;;;;13.73;10.98;;;23.50;66.70;;;;;;6248197;23;20008;-86
2023/10/08 07:24:17;;;;;;;15.13;10.75;;;23.60;66.30;;;;;;6251944;23;20362;-87
2023/10/08 07:26:46;;;;;;;15.52;11.05;;;23.60;66.50;;;;;;6249924;23;20159;-86
2023/10/08 07:29:17;;;;;;;15.13;10.93;;;23.60;66.80;;;;;;6247691;23;20150;-86
2023/10/08 07:31:48;;;;;;;15.70;10.43;;;23.80;66.70;;;;;;6249578;23;20022;-85
2023/10/08 07:34:15;;;;;;;14.32;10.93;;;23.90;66.60;;;;;;6218864;23;20452;-84
2023/10/08 07:36:43;;;;;;;17.00;10.68;;;23.80;65.90;;;;;;6245956;23;20012;-82
2023/10/08 07:39:22;;;;;;;14.93;11.15;;;23.90;65.50;;;;;;6250615;23;20052;-82
2023/10/08 07:41:49;;;;;;;16.10;11.13;;;23.80;65.10;;;;;;6251190;23;20003;-82
2023/10/08 07:44:15;;;;;;;17.85;10.82;;;23.70;64.60;;;;;;6246404;23;20054;-84
2023/10/08 07:46:41;;;;;;;19.85;10.65;;;23.70;64.80;;;;;;6245568;23;20412;-81
2023/10/08 07:49:07;;;;;;;18.05;11.65;;;23.70;65.70;;;;;;6245670;23;20008;-81
2023/10/08 07:51:33;;;;;;;14.77;9.98;;;23.70;64.70;;;;;;6245451;23;20007;-79
2023/10/08 07:53:59;;;;;;;18.10;11.07;;;23.60;64.60;;;;;;6247198;23;20007;-79
2023/10/08 07:56:25;;;;;;;15.02;11.32;;;23.50;64.50;;;;;;6245618;23;20011;-78
2023/10/08 07:58:55;;;;;;;15.25;11.13;;;23.40;64.60;;;;;;6246411;23;20022;-80
2023/10/08 08:01:24;;;;;;;16.25;10.85;;;23.30;64.90;;;;;;6246012;23;20028;-78
2023/10/08 08:03:51;;;;;;;14.25;10.30;;;23.30;65.00;;;;;;6246431;23;20453;-81
2023/10/08 08:06:16;;;;;;;17.98;10.27;;;23.30;65.10;;;;;;6245608;23;20000;-80
2023/10/08 08:08:44;;;;;;;12.73;10.20;;;23.30;64.80;;;;;;6244954;23;20087;-80
2023/10/08 08:11:13;;;;;;;12.70;9.23;;;23.20;64.80;;;;;;6221906;23;20012;-80
2023/10/08 08:13:42;;;;;;;17.38;10.30;;;23.20;64.40;;;;;;6247418;23;20061;-80
2023/10/08 08:16:12;;;;;;;16.27;10.40;;;23.20;65.10;;;;;;6247003;23;20020;-80
2023/10/08 08:18:38;;;;;;;16.20;10.35;;;23.20;65.10;;;;;;6246094;23;20007;-81
2023/10/08 08:21:13;;;;;;;17.60;9.90;;;23.20;65.20;;;;;;6250913;23;20000;-81
2023/10/08 08:23:40;;;;;;;13.88;10.23;;;23.20;65.40;;;;;;6260058;23;20008;-81
2023/10/08 08:28:31;;;;;;;13.55;9.57;;;23.20;65.60;;;;;;6245924;23;20004;-80
2023/10/08 08:31:04;;;;;;;15.15;9.77;;;23.20;64.50;;;;;;6245421;22;20027;-80
2023/10/08 08:33:52;;;;;;;13.80;9.40;;;23.30;64.40;;;;;;6218229;23;20338;-81
2023/10/08 08:36:22;;;;;;;11.82;9.43;;;23.30;64.50;;;;;;6244950;23;20066;-80
2023/10/08 08:38:48;;;;;;;12.98;9.93;;;23.30;64.00;;;;;;6245135;23;20071;-80
2023/10/08 08:41:17;;;;;;;16.45;9.15;;;23.30;64.10;;;;;;6245431;23;20027;-80
2023/10/08 08:43:47;;;;;;;16.48;10.13;;;23.30;64.30;;;;;;6245114;23;20000;-79
2023/10/08 08:46:12;;;;;;;18.33;10.70;;;23.30;64.10;;;;;;6245364;23;20004;-81
2023/10/08 08:48:44;;;;;;;17.02;9.57;;;23.30;64.30;;;;;;6245013;23;20007;-80
2023/10/08 08:51:10;;;;;;;13.15;9.30;;;23.40;64.80;;;;;;6218433;23;20008;-81
2023/10/08 08:53:37;;;;;;;17.10;10.05;;;23.40;63.70;;;;;;6245211;23;20383;-81
2023/10/08 08:56:06;;;;;;;14.48;9.90;;;23.40;63.60;;;;;;6244827;23;20008;-81
2023/10/08 08:58:33;;;;;;;13.70;8.75;;;23.40;63.20;;;;;;6244863;23;20007;-80
2023/10/08 09:01:00;;;;;;;14.30;9.23;;;23.50;63.50;;;;;;6245422;23;20004;-80
2023/10/08 09:03:30;;;;;;;16.88;10.05;;;23.50;63.70;;;;;;6252041;23;20067;-79
2023/10/08 09:05:57;;;;;;;13.60;9.18;;;23.50;63.20;;;;;;6245049;23;20022;-81
2023/10/08 09:08:28;;;;;;;16.02;9.43;;;23.60;64.00;;;;;;6244603;23;20008;-81
2023/10/08 09:11:00;;;;;;;13.07;9.60;;;23.60;63.60;;;;;;6244423;23;20008;-80
2023/10/08 09:13:27;;;;;;;13.15;8.50;;;23.60;63.50;;;;;;6244784;23;20008;-80
2023/10/08 09:16:14;;;;;;;15.88;9.10;;;23.70;63.40;;;;;;6244872;23;20092;-80
2023/10/08 09:18:46;;;;;;;14.32;9.15;;;23.80;62.70;;;;;;6245123;23;20027;-80
2023/10/08 09:21:14;;;;;;;14.90;9.35;;;23.80;62.80;;;;;;6244550;23;20098;-82
2023/10/08 09:23:43;;;;;;;16.25;9.63;;;23.90;63.00;;;;;;6244797;23;20001;-82
2023/10/08 09:26:10;;;;;;;14.00;9.00;;;23.90;62.80;;;;;;6244713;23;20462;-80
2023/10/08 09:28:38;;;;;;;17.30;9.00;;;24.00;62.70;;;;;;6218367;23;20044;-81
2023/10/08 09:31:06;;;;;;;17.83;9.18;;;24.00;62.80;;;;;;6244512;23;20000;-82
2023/10/08 09:33:32;;;;;;;13.05;9.57;;;24.10;62.70;;;;;;6244132;23;20279;-81
2023/10/08 09:36:04;;;;;;;12.95;9.38;;;24.10;62.60;;;;;;6249068;23;20054;-81
2023/10/08 09:38:31;;;;;;;13.07;8.73;;;24.20;63.00;;;;;;6261348;23;20099;-81
2023/10/08 09:41:00;;;;;;;14.63;9.05;;;24.30;62.90;;;;;;6221045;23;20012;-80
2023/10/08 09:43:27;;;;;;;17.80;9.60;;;24.30;62.60;;;;;;6244658;23;20456;-79
2023/10/08 09:46:19;;;;;;;15.63;8.77;;;24.40;62.60;;;;;;6244367;23;20008;-81
2023/10/08 09:48:53;;;;;;;16.52;9.07;;;24.40;61.90;;;;;;6245885;23;20343;-82
2023/10/08 09:51:20;;;;;;;13.52;8.57;;;24.50;61.70;;;;;;6220232;23;20008;-80
2023/10/08 09:54:13;;;;;;;17.88;9.15;;;24.50;61.60;;;;;;6252818;23;19996;-80
2023/10/08 09:56:40;;;;;;;11.68;8.15;;;24.60;60.40;;;;;;6258176;23;20043;-80
2023/10/08 09:59:08;;;;;;;11.68;7.88;;;24.60;60.40;;;;;;6248355;23;20080;-81
2023/10/08 10:01:37;;;;;;;11.90;8.93;;;24.70;60.80;;;;;;6246800;23;20004;-81
2023/10/08 10:04:09;;;;;;;12.18;8.27;;;24.80;60.40;;;;;;6246824;23;20052;-82
2023/10/08 10:06:36;;;;;;;12.88;9.00;;;24.90;60.40;;;;;;6246665;23;20387;-81
2023/10/08 10:09:06;;;;;;;12.43;8.02;;;24.90;60.20;;;;;;6246818;23;20095;-81
2023/10/08 10:11:32;;;;;;;11.02;7.93;;;25.00;59.50;;;;;;6246324;23;20008;-80
2023/10/08 10:14:02;;;;;;;12.88;8.18;;;25.10;59.50;;;;;;6246968;23;20054;-80
2023/10/08 10:16:28;;;;;;;12.38;7.50;;;25.10;59.50;;;;;;6246618;23;20318;-82
2023/10/08 10:18:59;;;;;;;19.30;7.95;;;25.20;59.40;;;;;;6246902;23;19996;-82
2023/10/08 10:21:29;;;;;;;11.90;7.30;;;25.30;59.00;;;;;;6246442;23;20008;-82
2023/10/08 10:23:56;;;;;;;14.13;7.35;;;25.40;58.40;;;;;;6246148;23;20024;-80
2023/10/08 10:26:40;;;;;;;10.10;7.50;;;25.50;57.70;;;;;;6246167;23;20335;-81
2023/10/08 10:29:11;;;;;;;10.77;7.35;;;25.50;57.00;;;;;;6246310;23;20000;-81
2023/10/08 10:31:47;;;;;;;12.45;8.05;;;25.60;56.10;;;;;;6246247;23;20386;-81
2023/10/08 10:34:17;;;;;;;11.40;7.22;;;25.70;56.50;;;;;;6246614;23;20130;-81
2023/10/08 10:36:48;;;;;;;10.60;7.40;;;25.70;56.10;;;;;;6246011;23;20016;-82
2023/10/08 10:39:30;;;;;;;10.98;7.45;;;25.80;56.10;;;;;;6246636;22;20015;-82
2023/10/08 10:42:01;;;;;;;12.40;6.95;;;25.90;55.40;;;;;;6246506;23;20019;-81
2023/10/08 10:44:29;;;;;;;9.95;7.07;;;26.00;55.80;;;;;;6246738;22;20139;-81
2023/10/08 10:50:18;;;;;;;10.00;5.78;;;26.10;53.80;;;;;;6212655;23;20008;-82
2023/10/08 10:52:52;;;;;;;11.10;6.70;;;26.20;52.40;;;;;;6235863;23;19996;-82
2023/10/08 10:58:24;;;;;;;9.50;6.25;;;26.30;52.30;;;;;;6246813;23;20012;-82
2023/10/08 11:03:16;;;;;;;11.32;6.32;;;26.40;52.40;;;;;;6246510;23;20047;-81
2023/10/08 11:05:48;;;;;;;9.02;6.55;;;26.50;51.00;;;;;;6245861;23;20008;-81
2023/10/08 11:08:15;;;;;;;9.75;6.25;;;26.50;51.20;;;;;;6248085;23;20070;-81
2023/10/08 11:10:51;;;;;;;9.10;6.03;;;26.60;51.10;;;;;;6246408;23;20020;-82
2023/10/08 11:13:28;;;;;;;12.02;6.50;;;26.70;50.80;;;;;;6218725;23;20036;-81
2023/10/08 11:15:54;;;;;;;9.38;6.60;;;26.80;50.80;;;;;;6218429;23;20393;-81
2023/10/08 11:18:27;;;;;;;9.57;6.25;;;26.80;50.40;;;;;;6246357;23;20004;-82
2023/10/08 11:21:13;;;;;;;11.93;7.75;;;26.80;50.00;;;;;;6245604;23;20012;-79
2023/10/08 11:23:53;;;;;;;10.43;7.47;;;26.90;50.20;;;;;;6245524;23;20338;-80
2023/10/08 11:26:21;;;;;;;11.20;6.80;;;27.00;50.00;;;;;;6245635;23;20000;-81
2023/10/08 11:28:47;;;;;;;15.05;9.05;;;27.10;49.90;;;;;;6245665;23;20111;-80
2023/10/08 11:31:21;;;;;;;12.95;7.57;;;27.20;50.00;;;;;;6245539;23;20087;-81
2023/10/08 11:33:55;;;;;;;;;;;27.30;48.80;;;;;;6246648;23;20091;-82
2023/10/08 11:36:29;;;;;;;11.68;6.20;;;27.40;49.10;;;;;;6245063;23;20360;-81
2023/10/08 11:39:02;;;;;;;9.32;6.32;;;27.40;48.90;;;;;;6217938;23;20365;-81
2023/10/08 11:41:35;;;;;;;10.05;7.10;;;27.50;48.50;;;;;;6245996;22;20004;-80
2023/10/08 11:44:03;;;;;;;11.70;6.93;;;27.60;48.50;;;;;;6245103;22;20459;-81
2023/10/08 11:46:38;;;;;;;10.02;6.43;;;27.60;49.00;;;;;;6243316;23;20008;-81
